sensor_id;sensor_type;location;lat;lon;timestamp;pressure;altitude;pressure_sealevel;temperature;humidity
76108;BME280;64834;52.516;10.528;2023-09-07T00:02:03;101612.63;;;17.21;85.86
76108;BME280;64834;52.516;10.528;2023-09-07T00:04:29;101611.91;;;17.25;85.09
76108;BME280;64834;52.516;10.528;2023-09-07T00:06:54;101611.50;;;17.16;85.99
76108;BME280;64834;52.516;10.528;2023-09-07T00:09:20;101609.16;;;17.03;87.00
76108;BME280;64834;52.516;10.528;2023-09-07T00:11:47;101606.72;;;17.07;86.58
76108;BME280;64834;52.516;10.528;2023-09-07T00:14:12;101596.16;;;17.07;86.52
76108;BME280;64834;52.516;10.528;2023-09-07T00:16:38;101596.22;;;17.09;86.53
76108;BME280;64834;52.516;10.528;2023-09-07T00:19:04;101600.16;;;16.97;86.92
76108;BME280;64834;52.516;10.528;2023-09-07T00:21:29;101598.03;;;16.90;87.27
76108;BME280;64834;52.516;10.528;2023-09-07T00:23:55;101596.41;;;16.92;87.39
76108;BME280;64834;52.516;10.528;2023-09-07T00:26:22;101595.34;;;16.89;87.31
76108;BME280;64834;52.516;10.528;2023-09-07T00:28:48;101610.09;;;16.84;87.54
76108;BME280;64834;52.516;10.528;2023-09-07T00:31:13;101606.44;;;16.80;88.32
76108;BME280;64834;52.516;10.528;2023-09-07T00:33:38;101599.34;;;16.79;87.82
76108;BME280;64834;52.516;10.528;2023-09-07T00:36:04;101608.06;;;16.78;87.65
76108;BME280;64834;52.516;10.528;2023-09-07T00:38:30;101609.91;;;16.79;87.62
76108;BME280;64834;52.516;10.528;2023-09-07T00:40:55;101608.78;;;16.74;87.96
76108;BME280;64834;52.516;10.528;2023-09-07T00:43:20;101614.91;;;16.73;88.22
76108;BME280;64834;52.516;10.528;2023-09-07T00:45:46;101612.34;;;16.57;88.75
76108;BME280;64834;52.516;10.528;2023-09-07T00:48:15;101619.31;;;16.55;89.49
76108;BME280;64834;52.516;10.528;2023-09-07T00:50:42;101614.22;;;16.59;88.74
76108;BME280;64834;52.516;10.528;2023-09-07T00:53:07;101611.53;;;16.58;88.68
76108;BME280;64834;52.516;10.528;2023-09-07T00:55:33;101609.59;;;16.54;88.96
76108;BME280;64834;52.516;10.528;2023-09-07T00:58:03;101607.41;;;16.45;89.85
76108;BME280;64834;52.516;10.528;2023-09-07T01:00:29;101614.16;;;16.38;89.82
76108;BME280;64834;52.516;10.528;2023-09-07T01:02:54;101613.03;;;16.33;90.17
76108;BME280;64834;52.516;10.528;2023-09-07T01:05:27;101615.66;;;16.33;90.21
76108;BME280;64834;52.516;10.528;2023-09-07T01:07:58;101613.72;;;16.29;89.90
76108;BME280;64834;52.516;10.528;2023-09-07T01:10:26;101611.72;;;16.24;90.65
76108;BME280;64834;52.516;10.528;2023-09-07T01:12:51;101616.22;;;16.26;90.30
76108;BME280;64834;52.516;10.528;2023-09-07T01:15:16;101609.19;;;16.27;90.43
76108;BME280;64834;52.516;10.528;2023-09-07T01:17:42;101611.47;;;16.19;90.50
76108;BME280;64834;52.516;10.528;2023-09-07T01:20:09;101606.88;;;16.15;90.88
76108;BME280;64834;52.516;10.528;2023-09-07T01:22:36;101609.38;;;16.12;91.14
76108;BME280;64834;52.516;10.528;2023-09-07T01:25:02;101604.88;;;16.09;91.67
76108;BME280;64834;52.516;10.528;2023-09-07T01:27:28;101592.28;;;16.04;91.45
76108;BME280;64834;52.516;10.528;2023-09-07T01:29:53;101600.75;;;15.97;92.29
76108;BME280;64834;52.516;10.528;2023-09-07T01:32:19;101601.47;;;15.94;91.88
76108;BME280;64834;52.516;10.528;2023-09-07T01:34:44;101590.56;;;15.86;92.37
76108;BME280;64834;52.516;10.528;2023-09-07T01:37:09;101602.09;;;15.88;92.56
76108;BME280;64834;52.516;10.528;2023-09-07T01:39:35;101596.50;;;15.82;92.88
76108;BME280;64834;52.516;10.528;2023-09-07T01:42:00;101593.72;;;15.79;93.01
76108;BME280;64834;52.516;10.528;2023-09-07T01:44:25;101599.97;;;15.81;92.80
76108;BME280;64834;52.516;10.528;2023-09-07T01:46:52;101591.94;;;15.78;92.61
76108;BME280;64834;52.516;10.528;2023-09-07T01:49:17;101588.38;;;15.78;92.74
76108;BME280;64834;52.516;10.528;2023-09-07T01:51:42;101593.56;;;15.76;92.34
76108;BME280;64834;52.516;10.528;2023-09-07T01:54:08;101583.41;;;15.66;92.78
76108;BME280;64834;52.516;10.528;2023-09-07T01:56:35;101591.00;;;15.60;93.25
76108;BME280;64834;52.516;10.528;2023-09-07T01:59:00;101592.16;;;15.65;92.98
76108;BME280;64834;52.516;10.528;2023-09-07T02:01:30;101599.63;;;15.57;93.37
76108;BME280;64834;52.516;10.528;2023-09-07T02:03:56;101602.06;;;15.53;93.38
76108;BME280;64834;52.516;10.528;2023-09-07T02:06:22;101596.31;;;15.44;93.51
76108;BME280;64834;52.516;10.528;2023-09-07T02:08:47;101603.25;;;15.42;94.08
76108;BME280;64834;52.516;10.528;2023-09-07T02:11:14;101606.28;;;15.49;93.69
76108;BME280;64834;52.516;10.528;2023-09-07T02:13:42;101603.78;;;15.52;92.55
76108;BME280;64834;52.516;10.528;2023-09-07T02:16:08;101605.69;;;15.55;92.36
76108;BME280;64834;52.516;10.528;2023-09-07T02:18:33;101604.78;;;15.54;92.21
76108;BME280;64834;52.516;10.528;2023-09-07T02:21:02;101603.63;;;15.49;92.83
76108;BME280;64834;52.516;10.528;2023-09-07T02:23:29;101605.38;;;15.49;92.40
76108;BME280;64834;52.516;10.528;2023-09-07T02:25:54;101611.41;;;15.46;92.11
76108;BME280;64834;52.516;10.528;2023-09-07T02:28:19;101600.44;;;15.38;92.80
76108;BME280;64834;52.516;10.528;2023-09-07T02:30:45;101603.09;;;15.38;92.48
76108;BME280;64834;52.516;10.528;2023-09-07T02:33:10;101607.84;;;15.46;92.53
76108;BME280;64834;52.516;10.528;2023-09-07T02:35:38;101602.34;;;15.41;92.16
76108;BME280;64834;52.516;10.528;2023-09-07T02:38:04;101604.50;;;15.32;92.42
76108;BME280;64834;52.516;10.528;2023-09-07T02:40:29;101606.31;;;15.33;92.79
76108;BME280;64834;52.516;10.528;2023-09-07T02:42:54;101606.16;;;15.30;92.76
76108;BME280;64834;52.516;10.528;2023-09-07T02:45:20;101605.03;;;15.25;92.93
76108;BME280;64834;52.516;10.528;2023-09-07T02:47:45;101603.47;;;15.28;92.86
76108;BME280;64834;52.516;10.528;2023-09-07T02:50:12;101613.19;;;15.29;92.74
76108;BME280;64834;52.516;10.528;2023-09-07T02:52:39;101609.56;;;15.27;92.57
76108;BME280;64834;52.516;10.528;2023-09-07T02:55:05;101615.06;;;15.32;92.40
76108;BME280;64834;52.516;10.528;2023-09-07T02:57:31;101611.44;;;15.30;92.35
76108;BME280;64834;52.516;10.528;2023-09-07T02:59:56;101606.50;;;15.36;91.92
76108;BME280;64834;52.516;10.528;2023-09-07T03:02:22;101614.22;;;15.33;91.49
76108;BME280;64834;52.516;10.528;2023-09-07T03:04:47;101609.31;;;15.23;92.00
76108;BME280;64834;52.516;10.528;2023-09-07T03:07:13;101600.84;;;15.28;91.98
76108;BME280;64834;52.516;10.528;2023-09-07T03:09:38;101597.78;;;15.21;91.94
76108;BME280;64834;52.516;10.528;2023-09-07T03:12:04;101602.72;;;15.15;92.31
76108;BME280;64834;52.516;10.528;2023-09-07T03:14:29;101594.59;;;15.10;93.17
76108;BME280;64834;52.516;10.528;2023-09-07T03:16:55;101600.94;;;15.14;92.71
76108;BME280;64834;52.516;10.528;2023-09-07T03:19:20;101598.97;;;15.09;93.03
76108;BME280;64834;52.516;10.528;2023-09-07T03:21:46;101601.44;;;15.06;93.21
76108;BME280;64834;52.516;10.528;2023-09-07T03:24:11;101602.13;;;15.02;93.10
76108;BME280;64834;52.516;10.528;2023-09-07T03:26:36;101601.03;;;14.99;93.24
76108;BME280;64834;52.516;10.528;2023-09-07T03:29:01;101615.56;;;14.91;93.29
76108;BME280;64834;52.516;10.528;2023-09-07T03:31:28;101611.44;;;14.79;93.60
76108;BME280;64834;52.516;10.528;2023-09-07T03:33:54;101614.00;;;14.78;94.26
76108;BME280;64834;52.516;10.528;2023-09-07T03:36:19;101611.88;;;14.71;94.04
76108;BME280;64834;52.516;10.528;2023-09-07T03:38:47;101617.16;;;14.71;94.41
76108;BME280;64834;52.516;10.528;2023-09-07T03:41:12;101614.00;;;14.78;94.15
76108;BME280;64834;52.516;10.528;2023-09-07T03:43:37;101605.34;;;14.80;94.41
76108;BME280;64834;52.516;10.528;2023-09-07T03:46:03;101610.69;;;14.82;94.26
76108;BME280;64834;52.516;10.528;2023-09-07T03:48:34;101618.13;;;14.73;94.20
76108;BME280;64834;52.516;10.528;2023-09-07T03:51:06;101616.22;;;14.70;93.85
76108;BME280;64834;52.516;10.528;2023-09-07T03:53:31;101619.03;;;14.73;94.61
76108;BME280;64834;52.516;10.528;2023-09-07T03:55:56;101613.00;;;14.76;94.46
76108;BME280;64834;52.516;10.528;2023-09-07T03:58:22;101617.16;;;14.71;93.92
76108;BME280;64834;52.516;10.528;2023-09-07T04:00:47;101614.00;;;14.62;94.49
76108;BME280;64834;52.516;10.528;2023-09-07T04:03:13;101614.84;;;14.61;94.43
76108;BME280;64834;52.516;10.528;2023-09-07T04:05:38;101617.38;;;14.59;94.64
76108;BME280;64834;52.516;10.528;2023-09-07T04:08:04;101609.50;;;14.59;94.75
76108;BME280;64834;52.516;10.528;2023-09-07T04:10:29;101614.56;;;14.56;94.98
76108;BME280;64834;52.516;10.528;2023-09-07T04:12:55;101614.75;;;14.59;94.20
76108;BME280;64834;52.516;10.528;2023-09-07T04:15:20;101611.28;;;14.60;94.48
76108;BME280;64834;52.516;10.528;2023-09-07T04:17:45;101612.69;;;14.53;94.90
76108;BME280;64834;52.516;10.528;2023-09-07T04:20:11;101617.69;;;14.49;94.70
76108;BME280;64834;52.516;10.528;2023-09-07T04:22:39;101613.94;;;14.45;94.66
76108;BME280;64834;52.516;10.528;2023-09-07T04:25:06;101619.00;;;14.41;95.27
76108;BME280;64834;52.516;10.528;2023-09-07T04:27:31;101615.44;;;14.40;95.40
76108;BME280;64834;52.516;10.528;2023-09-07T04:29:56;101618.31;;;14.45;95.87
76108;BME280;64834;52.516;10.528;2023-09-07T04:32:22;101620.41;;;14.50;94.66
76108;BME280;64834;52.516;10.528;2023-09-07T04:34:47;101614.44;;;14.53;93.89
76108;BME280;64834;52.516;10.528;2023-09-07T04:37:12;101625.88;;;14.53;93.98
76108;BME280;64834;52.516;10.528;2023-09-07T04:39:38;101619.59;;;14.51;94.64
76108;BME280;64834;52.516;10.528;2023-09-07T04:42:05;101623.22;;;14.53;94.68
76108;BME280;64834;52.516;10.528;2023-09-07T04:44:30;101622.91;;;14.47;94.12
76108;BME280;64834;52.516;10.528;2023-09-07T04:46:55;101622.78;;;14.46;94.89
76108;BME280;64834;52.516;10.528;2023-09-07T04:49:21;101621.09;;;14.46;94.66
76108;BME280;64834;52.516;10.528;2023-09-07T04:51:46;101632.97;;;14.40;95.09
76108;BME280;64834;52.516;10.528;2023-09-07T04:54:11;101624.06;;;14.38;94.95
76108;BME280;64834;52.516;10.528;2023-09-07T04:56:38;101629.19;;;14.35;95.95
76108;BME280;64834;52.516;10.528;2023-09-07T04:59:03;101629.34;;;14.38;95.43
76108;BME280;64834;52.516;10.528;2023-09-07T05:01:28;101635.56;;;14.23;97.28
76108;BME280;64834;52.516;10.528;2023-09-07T05:03:54;101633.75;;;14.22;97.33
76108;BME280;64834;52.516;10.528;2023-09-07T05:06:20;101635.84;;;14.28;96.99
76108;BME280;64834;52.516;10.528;2023-09-07T05:08:48;101640.34;;;14.30;96.62
76108;BME280;64834;52.516;10.528;2023-09-07T05:11:13;101632.16;;;14.41;96.84
76108;BME280;64834;52.516;10.528;2023-09-07T05:13:38;101633.97;;;14.42;96.59
76108;BME280;64834;52.516;10.528;2023-09-07T05:16:03;101643.97;;;14.64;95.51
76108;BME280;64834;52.516;10.528;2023-09-07T05:18:30;101637.63;;;14.60;95.19
76108;BME280;64834;52.516;10.528;2023-09-07T05:20:55;101630.00;;;14.65;95.21
76108;BME280;64834;52.516;10.528;2023-09-07T05:23:22;101640.41;;;14.63;95.24
76108;BME280;64834;52.516;10.528;2023-09-07T05:25:49;101640.53;;;14.65;95.52
76108;BME280;64834;52.516;10.528;2023-09-07T05:28:19;101647.69;;;14.67;95.25
76108;BME280;64834;52.516;10.528;2023-09-07T05:30:44;101648.16;;;14.76;95.00
76108;BME280;64834;52.516;10.528;2023-09-07T05:33:11;101643.41;;;14.86;94.63
76108;BME280;64834;52.516;10.528;2023-09-07T05:35:37;101646.38;;;14.92;94.86
76108;BME280;64834;52.516;10.528;2023-09-07T05:38:03;101656.22;;;14.96;94.57
76108;BME280;64834;52.516;10.528;2023-09-07T05:40:29;101651.38;;;15.03;94.08
76108;BME280;64834;52.516;10.528;2023-09-07T05:42:54;101649.78;;;15.07;93.49
76108;BME280;64834;52.516;10.528;2023-09-07T05:45:20;101650.19;;;15.15;93.57
76108;BME280;64834;52.516;10.528;2023-09-07T05:47:45;101657.44;;;15.19;92.88
76108;BME280;64834;52.516;10.528;2023-09-07T05:50:11;101649.13;;;15.27;92.55
76108;BME280;64834;52.516;10.528;2023-09-07T05:52:37;101664.00;;;15.27;92.88
76108;BME280;64834;52.516;10.528;2023-09-07T05:55:02;101663.03;;;15.25;93.19
76108;BME280;64834;52.516;10.528;2023-09-07T05:57:28;101656.41;;;15.33;92.76
76108;BME280;64834;52.516;10.528;2023-09-07T05:59:53;101654.78;;;15.35;93.03
76108;BME280;64834;52.516;10.528;2023-09-07T06:02:18;101658.38;;;15.53;92.15
76108;BME280;64834;52.516;10.528;2023-09-07T06:04:44;101662.22;;;15.60;91.62
76108;BME280;64834;52.516;10.528;2023-09-07T06:07:09;101663.69;;;15.71;90.93
76108;BME280;64834;52.516;10.528;2023-09-07T06:09:35;101656.00;;;15.76;90.64
76108;BME280;64834;52.516;10.528;2023-09-07T06:12:02;101662.78;;;15.88;90.67
76108;BME280;64834;52.516;10.528;2023-09-07T06:14:28;101664.59;;;15.89;90.82
76108;BME280;64834;52.516;10.528;2023-09-07T06:16:53;101662.97;;;15.91;90.82
76108;BME280;64834;52.516;10.528;2023-09-07T06:19:18;101664.38;;;16.03;90.79
76108;BME280;64834;52.516;10.528;2023-09-07T06:21:43;101660.63;;;16.15;90.26
76108;BME280;64834;52.516;10.528;2023-09-07T06:24:09;101666.63;;;16.31;89.63
76108;BME280;64834;52.516;10.528;2023-09-07T06:26:34;101664.34;;;16.38;89.89
76108;BME280;64834;52.516;10.528;2023-09-07T06:28:59;101668.53;;;16.53;89.26
76108;BME280;64834;52.516;10.528;2023-09-07T06:31:25;101677.88;;;16.64;88.75
76108;BME280;64834;52.516;10.528;2023-09-07T06:33:50;101678.81;;;16.84;88.87
76108;BME280;64834;52.516;10.528;2023-09-07T06:36:15;101683.66;;;16.92;88.25
76108;BME280;64834;52.516;10.528;2023-09-07T06:38:41;101683.22;;;17.03;88.16
76108;BME280;64834;52.516;10.528;2023-09-07T06:41:06;101675.25;;;17.41;86.95
76108;BME280;64834;52.516;10.528;2023-09-07T06:43:33;101674.78;;;17.92;84.65
76108;BME280;64834;52.516;10.528;2023-09-07T06:46:05;101673.19;;;18.40;83.12
76108;BME280;64834;52.516;10.528;2023-09-07T06:48:30;101673.47;;;18.69;80.79
76108;BME280;64834;52.516;10.528;2023-09-07T06:51:01;101674.50;;;18.96;79.28
76108;BME280;64834;52.516;10.528;2023-09-07T06:53:27;101685.06;;;19.19;78.29
76108;BME280;64834;52.516;10.528;2023-09-07T06:56:02;101675.41;;;19.46;77.40
76108;BME280;64834;52.516;10.528;2023-09-07T06:58:28;101674.06;;;19.83;75.50
76108;BME280;64834;52.516;10.528;2023-09-07T07:00:57;101679.28;;;20.07;73.60
76108;BME280;64834;52.516;10.528;2023-09-07T07:03:26;101677.06;;;20.20;73.07
76108;BME280;64834;52.516;10.528;2023-09-07T07:05:51;101681.03;;;20.33;71.92
76108;BME280;64834;52.516;10.528;2023-09-07T07:08:17;101686.28;;;20.59;71.77
76108;BME280;64834;52.516;10.528;2023-09-07T07:10:42;101680.75;;;20.81;71.19
76108;BME280;64834;52.516;10.528;2023-09-07T07:13:07;101687.41;;;20.97;70.23
76108;BME280;64834;52.516;10.528;2023-09-07T07:15:33;101683.47;;;21.13;69.45
76108;BME280;64834;52.516;10.528;2023-09-07T07:18:00;101682.63;;;21.45;68.61
76108;BME280;64834;52.516;10.528;2023-09-07T07:20:25;101677.28;;;21.45;67.91
76108;BME280;64834;52.516;10.528;2023-09-07T07:22:51;101682.78;;;21.51;68.61
76108;BME280;64834;52.516;10.528;2023-09-07T07:25:16;101679.78;;;21.74;68.22
76108;BME280;64834;52.516;10.528;2023-09-07T07:27:42;101680.41;;;21.98;67.12
76108;BME280;64834;52.516;10.528;2023-09-07T07:30:08;101678.81;;;22.41;66.92
76108;BME280;64834;52.516;10.528;2023-09-07T07:32:33;101677.78;;;22.75;64.99
76108;BME280;64834;52.516;10.528;2023-09-07T07:34:59;101673.69;;;22.90;64.61
76108;BME280;64834;52.516;10.528;2023-09-07T07:37:24;101676.66;;;23.03;62.81
76108;BME280;64834;52.516;10.528;2023-09-07T07:39:49;101678.81;;;23.24;62.85
76108;BME280;64834;52.516;10.528;2023-09-07T07:42:15;101676.81;;;23.58;61.94
76108;BME280;64834;52.516;10.528;2023-09-07T07:44:40;101673.94;;;23.47;60.10
76108;BME280;64834;52.516;10.528;2023-09-07T07:47:05;101676.97;;;23.65;60.21
76108;BME280;64834;52.516;10.528;2023-09-07T07:49:31;101678.81;;;23.69;59.16
76108;BME280;64834;52.516;10.528;2023-09-07T07:51:57;101670.94;;;23.77;58.75
76108;BME280;64834;52.516;10.528;2023-09-07T07:54:23;101674.41;;;23.70;58.02
76108;BME280;64834;52.516;10.528;2023-09-07T07:56:50;101676.84;;;24.11;56.59
76108;BME280;64834;52.516;10.528;2023-09-07T07:59:15;101677.91;;;24.20;56.98
76108;BME280;64834;52.516;10.528;2023-09-07T08:01:41;101677.84;;;24.17;55.84
76108;BME280;64834;52.516;10.528;2023-09-07T08:04:07;101670.69;;;24.16;54.81
76108;BME280;64834;52.516;10.528;2023-09-07T08:06:33;101670.88;;;24.27;55.03
76108;BME280;64834;52.516;10.528;2023-09-07T08:08:58;101675.16;;;24.16;55.02
76108;BME280;64834;52.516;10.528;2023-09-07T08:11:23;101668.44;;;24.42;54.81
76108;BME280;64834;52.516;10.528;2023-09-07T08:13:49;101672.84;;;24.39;54.74
76108;BME280;64834;52.516;10.528;2023-09-07T08:16:14;101665.75;;;24.41;54.29
76108;BME280;64834;52.516;10.528;2023-09-07T08:18:39;101668.50;;;24.45;54.33
76108;BME280;64834;52.516;10.528;2023-09-07T08:21:05;101672.00;;;24.43;53.63
76108;BME280;64834;52.516;10.528;2023-09-07T08:23:30;101667.91;;;24.69;53.74
76108;BME280;64834;52.516;10.528;2023-09-07T08:25:56;101666.00;;;24.58;53.98
76108;BME280;64834;52.516;10.528;2023-09-07T08:28:22;101665.13;;;24.62;53.55
76108;BME280;64834;52.516;10.528;2023-09-07T08:30:50;101667.09;;;24.75;53.96
76108;BME280;64834;52.516;10.528;2023-09-07T08:33:19;101663.59;;;24.79;53.41
76108;BME280;64834;52.516;10.528;2023-09-07T08:35:44;101658.31;;;24.87;52.92
76108;BME280;64834;52.516;10.528;2023-09-07T08:38:10;101656.78;;;25.06;52.29
76108;BME280;64834;52.516;10.528;2023-09-07T08:40:37;101669.81;;;24.77;50.27
76108;BME280;64834;52.516;10.528;2023-09-07T08:43:08;101666.28;;;24.81;50.82
76108;BME280;64834;52.516;10.528;2023-09-07T08:45:41;101664.84;;;25.06;50.55
76108;BME280;64834;52.516;10.528;2023-09-07T08:48:13;101658.31;;;24.85;51.93
76108;BME280;64834;52.516;10.528;2023-09-07T08:50:41;101664.63;;;24.92;51.62
76108;BME280;64834;52.516;10.528;2023-09-07T08:53:08;101651.25;;;24.90;49.90
76108;BME280;64834;52.516;10.528;2023-09-07T08:55:33;101653.94;;;24.92;50.94
76108;BME280;64834;52.516;10.528;2023-09-07T08:57:59;101654.00;;;24.99;50.73
76108;BME280;64834;52.516;10.528;2023-09-07T09:00:24;101650.69;;;25.17;50.38
76108;BME280;64834;52.516;10.528;2023-09-07T09:02:49;101659.81;;;25.39;49.77
76108;BME280;64834;52.516;10.528;2023-09-07T09:05:15;101661.53;;;25.28;49.62
76108;BME280;64834;52.516;10.528;2023-09-07T09:07:40;101655.34;;;25.34;48.88
76108;BME280;64834;52.516;10.528;2023-09-07T09:10:07;101667.13;;;25.52;50.33
76108;BME280;64834;52.516;10.528;2023-09-07T09:12:33;101661.09;;;25.76;47.84
76108;BME280;64834;52.516;10.528;2023-09-07T09:15:00;101663.50;;;25.49;48.75
76108;BME280;64834;52.516;10.528;2023-09-07T09:17:28;101664.56;;;25.65;48.65
76108;BME280;64834;52.516;10.528;2023-09-07T09:19:54;101656.72;;;25.85;47.78
76108;BME280;64834;52.516;10.528;2023-09-07T09:22:19;101663.22;;;26.16;48.26
76108;BME280;64834;52.516;10.528;2023-09-07T09:24:47;101664.84;;;25.92;46.38
76108;BME280;64834;52.516;10.528;2023-09-07T09:27:13;101652.22;;;25.79;48.36
76108;BME280;64834;52.516;10.528;2023-09-07T09:29:38;101661.25;;;25.95;47.49
76108;BME280;64834;52.516;10.528;2023-09-07T09:32:05;101654.25;;;26.14;48.00
76108;BME280;64834;52.516;10.528;2023-09-07T09:34:35;101648.22;;;26.45;46.73
76108;BME280;64834;52.516;10.528;2023-09-07T09:37:02;101651.81;;;26.46;46.07
76108;BME280;64834;52.516;10.528;2023-09-07T09:39:31;101643.88;;;26.66;46.29
76108;BME280;64834;52.516;10.528;2023-09-07T09:41:56;101645.66;;;26.70;45.97
76108;BME280;64834;52.516;10.528;2023-09-07T09:44:23;101643.88;;;26.66;47.33
76108;BME280;64834;52.516;10.528;2023-09-07T09:46:52;101644.78;;;26.74;46.38
76108;BME280;64834;52.516;10.528;2023-09-07T09:49:20;101636.75;;;26.80;46.33
76108;BME280;64834;52.516;10.528;2023-09-07T09:51:48;101637.69;;;26.86;45.67
76108;BME280;64834;52.516;10.528;2023-09-07T09:54:16;101634.13;;;26.94;45.47
76108;BME280;64834;52.516;10.528;2023-09-07T09:56:41;101635.94;;;27.01;46.49
76108;BME280;64834;52.516;10.528;2023-09-07T09:59:07;101628.84;;;27.12;45.64
76108;BME280;64834;52.516;10.528;2023-09-07T10:01:41;101633.25;;;27.01;46.01
76108;BME280;64834;52.516;10.528;2023-09-07T10:04:11;101635.13;;;27.22;46.39
76108;BME280;64834;52.516;10.528;2023-09-07T10:06:37;101629.78;;;27.23;46.37
76108;BME280;64834;52.516;10.528;2023-09-07T10:11:34;101636.09;;;27.62;45.89
76108;BME280;64834;52.516;10.528;2023-09-07T10:14:01;101625.34;;;27.69;45.71
76108;BME280;64834;52.516;10.528;2023-09-07T10:19:21;101630.75;;;27.73;45.12
76108;BME280;64834;52.516;10.528;2023-09-07T10:21:47;101623.50;;;27.38;45.80
76108;BME280;64834;52.516;10.528;2023-09-07T10:27:00;101621.72;;;27.23;45.86
76108;BME280;64834;52.516;10.528;2023-09-07T10:29:26;101618.13;;;27.30;46.59
76108;BME280;64834;52.516;10.528;2023-09-07T10:31:52;101619.94;;;27.36;46.91
76108;BME280;64834;52.516;10.528;2023-09-07T10:34:18;101631.59;;;27.56;46.10
76108;BME280;64834;52.516;10.528;2023-09-07T10:36:43;101623.53;;;27.49;46.92
76108;BME280;64834;52.516;10.528;2023-09-07T10:39:09;101625.31;;;27.59;46.84
76108;BME280;64834;52.516;10.528;2023-09-07T10:41:44;101617.22;;;27.40;46.96
76108;BME280;64834;52.516;10.528;2023-09-07T10:44:09;101620.81;;;27.46;46.06
76108;BME280;64834;52.516;10.528;2023-09-07T10:46:39;101620.84;;;27.58;45.89
76108;BME280;64834;52.516;10.528;2023-09-07T10:49:11;101619.97;;;27.76;45.92
76108;BME280;64834;52.516;10.528;2023-09-07T10:51:46;101612.78;;;27.90;45.38
76108;BME280;64834;52.516;10.528;2023-09-07T10:56:49;101618.13;;;28.20;44.25
76108;BME280;64834;52.516;10.528;2023-09-07T10:59:14;101614.59;;;27.77;44.12
76108;BME280;64834;52.516;10.528;2023-09-07T11:01:40;101611.00;;;27.78;43.94
76108;BME280;64834;52.516;10.528;2023-09-07T11:04:06;101612.78;;;27.88;44.88
76108;BME280;64834;52.516;10.528;2023-09-07T11:06:33;101602.94;;;27.87;44.11
76108;BME280;64834;52.516;10.528;2023-09-07T11:09:00;101605.63;;;27.71;44.74
76108;BME280;64834;52.516;10.528;2023-09-07T11:11:27;101605.63;;;27.83;43.56
76108;BME280;64834;52.516;10.528;2023-09-07T11:13:52;101602.03;;;27.88;43.98
76108;BME280;64834;52.516;10.528;2023-09-07T11:16:17;101592.19;;;27.92;43.39
76108;BME280;64834;52.516;10.528;2023-09-07T11:18:45;101591.28;;;27.93;44.46
76108;BME280;64834;52.516;10.528;2023-09-07T11:21:11;101591.22;;;28.14;42.90
76108;BME280;64834;52.516;10.528;2023-09-07T11:23:37;101579.53;;;28.21;43.55
76108;BME280;64834;52.516;10.528;2023-09-07T11:26:05;101593.88;;;28.25;43.79
76108;BME280;64834;52.516;10.528;2023-09-07T11:28:31;101588.53;;;28.08;43.24
76108;BME280;64834;52.516;10.528;2023-09-07T11:30:58;101586.75;;;28.06;43.64
76108;BME280;64834;52.516;10.528;2023-09-07T11:33:24;101590.38;;;27.83;43.22
76108;BME280;64834;52.516;10.528;2023-09-07T11:35:50;101596.69;;;27.79;43.20
76108;BME280;64834;52.516;10.528;2023-09-07T11:38:16;101585.00;;;27.88;43.84
76108;BME280;64834;52.516;10.528;2023-09-07T11:40:42;101585.81;;;28.23;44.83
76108;BME280;64834;52.516;10.528;2023-09-07T11:43:17;101584.00;;;28.30;44.00
76108;BME280;64834;52.516;10.528;2023-09-07T11:45:46;101577.75;;;28.20;42.92
76108;BME280;64834;52.516;10.528;2023-09-07T11:48:11;101575.94;;;28.29;43.33
76108;BME280;64834;52.516;10.528;2023-09-07T11:50:37;101579.47;;;28.49;43.10
76108;BME280;64834;52.516;10.528;2023-09-07T11:53:03;101577.66;;;28.53;42.98
76108;BME280;64834;52.516;10.528;2023-09-07T11:55:29;101576.75;;;28.55;42.82
76108;BME280;64834;52.516;10.528;2023-09-07T11:57:54;101571.38;;;28.52;43.89
76108;BME280;64834;52.516;10.528;2023-09-07T12:00:20;101578.53;;;28.59;43.68
76108;BME280;64834;52.516;10.528;2023-09-07T12:02:45;101575.84;;;28.58;42.72
76108;BME280;64834;52.516;10.528;2023-09-07T12:05:10;101567.81;;;28.47;43.30
76108;BME280;64834;52.516;10.528;2023-09-07T12:07:39;101567.75;;;28.58;44.25
76108;BME280;64834;52.516;10.528;2023-09-07T12:10:05;101567.78;;;28.55;42.84
76108;BME280;64834;52.516;10.528;2023-09-07T12:12:31;101561.47;;;28.57;42.59
76108;BME280;64834;52.516;10.528;2023-09-07T12:14:56;101571.31;;;28.66;43.38
76108;BME280;64834;52.516;10.528;2023-09-07T12:17:24;101561.34;;;28.83;42.51
76108;BME280;64834;52.516;10.528;2023-09-07T12:19:50;101562.22;;;28.88;42.81
76108;BME280;64834;52.516;10.528;2023-09-07T12:22:15;101561.38;;;28.75;41.71
76108;BME280;64834;52.516;10.528;2023-09-07T12:24:40;101554.16;;;28.82;42.04
76108;BME280;64834;52.516;10.528;2023-09-07T12:27:06;101555.91;;;28.91;41.93
76108;BME280;64834;52.516;10.528;2023-09-07T12:29:31;101548.78;;;28.85;41.98
76108;BME280;64834;52.516;10.528;2023-09-07T12:31:56;101544.22;;;28.99;41.08
76108;BME280;64834;52.516;10.528;2023-09-07T12:34:22;101542.28;;;29.15;41.29
76108;BME280;64834;52.516;10.528;2023-09-07T12:36:47;101555.59;;;29.38;41.31
76108;BME280;64834;52.516;10.528;2023-09-07T12:39:14;101545.84;;;29.23;38.58
76108;BME280;64834;52.516;10.528;2023-09-07T12:41:39;101546.72;;;29.22;40.02
76108;BME280;64834;52.516;10.528;2023-09-07T12:44:04;101552.13;;;29.24;39.50
76108;BME280;64834;52.516;10.528;2023-09-07T12:46:31;101550.31;;;29.24;39.51